createdAt,value
2017-12-29T00:00:37.346Z,1.02
2017-12-29T00:01:40.252Z,1.15
2017-12-29T00:02:43.188Z,1.20
2017-12-29T00:03:46.143Z,1.24
2017-12-29T00:04:49.039Z,1.09
2017-12-29T00:05:52.387Z,1.10
2017-12-29T00:06:55.359Z,1.09
2017-12-29T00:07:58.330Z,1.08
2017-12-29T00:09:01.259Z,1.28
2017-12-29T00:10:04.224Z,1.14
2017-12-29T00:11:07.763Z,1.17
2017-12-29T00:12:11.010Z,1.06
2017-12-29T00:13:13.935Z,1.27
2017-12-29T00:14:16.870Z,1.32
2017-12-29T00:15:19.770Z,1.08
2017-12-29T00:16:22.713Z,1.32
2017-12-29T00:17:25.655Z,1.13
2017-12-29T00:18:29.476Z,1.00
2017-12-29T00:19:32.458Z,1.22
2017-12-29T00:20:35.470Z,1.33
2017-12-29T00:21:38.451Z,1.18
2017-12-29T00:22:41.405Z,1.18
2017-12-29T00:23:44.335Z,1.19
2017-12-29T00:24:48.089Z,1.07
2017-12-29T00:25:50.983Z,1.08
2017-12-29T00:26:53.868Z,1.11
2017-12-29T00:27:56.803Z,1.19
2017-12-29T00:28:59.714Z,1.12
2017-12-29T00:30:02.675Z,1.23
2017-12-29T00:31:05.924Z,1.34
2017-12-29T00:32:08.787Z,1.25
2017-12-29T00:33:11.692Z,1.16
2017-12-29T00:34:14.530Z,1.34
2017-12-29T00:35:17.424Z,1.20
2017-12-29T00:36:20.246Z,0.93
2017-12-29T00:37:23.479Z,0.93
2017-12-29T00:38:26.699Z,1.05
2017-12-29T00:39:29.572Z,1.03
2017-12-29T00:40:32.439Z,0.90
2017-12-29T00:41:35.322Z,0.99
2017-12-29T00:42:38.225Z,0.83
2017-12-29T00:43:41.358Z,0.88
2017-12-29T00:44:44.356Z,0.76
2017-12-29T00:45:47.324Z,0.91
2017-12-29T00:46:50.279Z,1.01
2017-12-29T00:47:53.240Z,0.68
2017-12-29T00:48:56.811Z,0.85
2017-12-29T00:49:59.918Z,0.71
2017-12-29T00:51:04.125Z,0.80
2017-12-29T00:52:07.097Z,0.87
2017-12-29T00:53:10.037Z,0.75
2017-12-29T00:54:13.196Z,0.67
2017-12-29T00:55:16.672Z,0.86
2017-12-29T00:56:19.701Z,0.60
2017-12-29T00:57:22.753Z,0.88
2017-12-29T00:58:25.748Z,0.76
2017-12-29T00:59:28.749Z,0.84
2017-12-29T01:00:31.750Z,0.92
2017-12-29T01:01:35.004Z,0.89
2017-12-29T01:02:37.975Z,0.90
2017-12-29T01:03:40.995Z,0.81
2017-12-29T01:04:43.929Z,0.89
2017-12-29T01:05:46.971Z,0.84
2017-12-29T01:06:49.928Z,0.74
2017-12-29T01:07:53.168Z,0.73
2017-12-29T01:08:56.091Z,0.55
2017-12-29T01:09:59.016Z,0.84
2017-12-29T01:11:01.972Z,0.79
2017-12-29T01:12:04.882Z,0.92
2017-12-29T01:13:07.907Z,0.87
2017-12-29T01:14:10.958Z,0.84
2017-12-29T01:15:13.943Z,0.86
2017-12-29T01:16:16.951Z,0.67
2017-12-29T01:17:19.896Z,0.83
2017-12-29T01:18:22.801Z,1.04
2017-12-29T01:19:25.947Z,1.06
2017-12-29T01:20:28.846Z,1.06
2017-12-29T01:21:31.834Z,1.02
2017-12-29T01:22:34.830Z,0.93
2017-12-29T01:23:37.800Z,0.91
2017-12-29T01:24:40.840Z,0.81
2017-12-29T01:25:44.066Z,0.94
2017-12-29T01:26:46.975Z,1.01
2017-12-29T01:27:49.907Z,0.77
2017-12-29T01:28:52.848Z,1.10
2017-12-29T01:29:55.706Z,0.81
2017-12-29T01:30:58.563Z,0.91
2017-12-29T01:32:01.801Z,0.87
2017-12-29T01:33:04.718Z,0.81
2017-12-29T01:34:07.549Z,0.91
2017-12-29T01:35:10.370Z,0.95
2017-12-29T01:36:13.190Z,0.83
2017-12-29T01:37:16.008Z,1.01
2017-12-29T01:38:19.102Z,0.95
2017-12-29T01:39:21.911Z,0.82
2017-12-29T01:40:24.872Z,0.67
2017-12-29T01:41:27.837Z,1.04
2017-12-29T01:42:30.799Z,1.00
2017-12-29T01:43:33.772Z,0.92
2017-12-29T01:44:37.033Z,0.95
2017-12-29T01:45:39.967Z,0.79
2017-12-29T01:46:43.439Z,0.86
2017-12-29T01:47:46.604Z,1.07
2017-12-29T01:48:49.481Z,1.17
2017-12-29T01:49:52.368Z,0.78
2017-12-29T01:50:55.523Z,0.86
2017-12-29T01:51:58.417Z,0.94
2017-12-29T01:53:01.333Z,0.88
2017-12-29T01:54:04.286Z,1.10
2017-12-29T01:55:07.240Z,0.95
2017-12-29T01:56:10.166Z,0.88
2017-12-29T01:57:13.378Z,0.97
2017-12-29T01:58:16.392Z,0.78
2017-12-29T01:59:19.356Z,0.73
2017-12-29T02:00:22.188Z,0.96
2017-12-29T02:01:24.995Z,0.83
2017-12-29T02:02:27.981Z,0.92
2017-12-29T02:03:31.200Z,0.77
2017-12-29T02:04:34.128Z,0.76
2017-12-29T02:05:37.648Z,0.78
2017-12-29T02:06:40.576Z,0.85
2017-12-29T02:07:43.507Z,0.79
2017-12-29T02:08:46.470Z,0.73
2017-12-29T02:09:49.707Z,0.81
2017-12-29T02:10:52.610Z,0.85
2017-12-29T02:11:55.990Z,0.76
2017-12-29T02:12:58.920Z,0.65
2017-12-29T02:14:01.843Z,0.72
2017-12-29T02:15:04.758Z,0.93
2017-12-29T02:16:07.845Z,0.78
2017-12-29T02:17:10.795Z,0.84
2017-12-29T02:18:13.898Z,0.85
2017-12-29T02:19:16.774Z,0.65
2017-12-29T02:20:19.632Z,0.78
2017-12-29T02:21:22.830Z,0.75
2017-12-29T02:22:25.781Z,0.60
2017-12-29T02:23:28.825Z,0.74
2017-12-29T02:24:31.768Z,0.78
2017-12-29T02:25:34.712Z,0.57
2017-12-29T02:26:37.641Z,0.58
2017-12-29T02:27:40.946Z,0.68
2017-12-29T02:28:45.559Z,0.58
2017-12-29T02:29:48.499Z,0.81
2017-12-29T02:30:51.425Z,0.80
2017-12-29T02:31:54.352Z,0.69
2017-12-29T02:32:57.299Z,0.66
2017-12-29T02:34:00.548Z,0.77
2017-12-29T02:35:03.400Z,0.76
2017-12-29T02:36:06.265Z,0.86
2017-12-29T02:37:09.173Z,0.92
2017-12-29T02:38:12.065Z,0.80
2017-12-29T02:39:14.980Z,0.76
2017-12-29T02:40:18.264Z,0.70
2017-12-29T02:41:21.131Z,0.67
2017-12-29T02:42:24.040Z,0.63
2017-12-29T02:43:26.940Z,0.68
2017-12-29T02:44:29.888Z,0.74
2017-12-29T02:45:32.774Z,0.85
2017-12-29T02:46:36.056Z,0.80
2017-12-29T02:47:39.322Z,0.84
2017-12-29T02:48:42.249Z,0.75
2017-12-29T02:49:45.186Z,0.75
2017-12-29T02:50:48.142Z,0.65
2017-12-29T02:51:51.079Z,0.68
2017-12-29T02:52:54.296Z,0.75
2017-12-29T02:53:57.277Z,0.91
2017-12-29T02:55:00.291Z,0.79
2017-12-29T02:56:03.719Z,0.68
2017-12-29T02:57:06.652Z,0.51
2017-12-29T02:58:09.565Z,0.73
2017-12-29T02:59:12.912Z,0.90
2017-12-29T03:00:15.854Z,0.81
2017-12-29T03:01:18.851Z,0.61
2017-12-29T03:02:21.782Z,0.65
2017-12-29T03:03:24.780Z,0.77
2017-12-29T03:04:27.713Z,0.67
2017-12-29T03:05:30.895Z,0.68
2017-12-29T03:06:33.817Z,0.67
2017-12-29T03:07:36.743Z,0.77
2017-12-29T03:08:39.675Z,0.98
2017-12-29T03:09:42.574Z,1.14
2017-12-29T03:10:45.532Z,1.21
2017-12-29T03:11:48.967Z,0.80
2017-12-29T03:12:51.901Z,0.75
2017-12-29T03:13:54.800Z,0.89
2017-12-29T03:14:57.660Z,0.68
2017-12-29T03:16:00.681Z,0.84
2017-12-29T03:17:03.784Z,0.95
2017-12-29T03:18:07.013Z,0.91
2017-12-29T03:19:10.011Z,0.94
2017-12-29T03:20:12.976Z,1.02
2017-12-29T03:21:16.007Z,0.84
2017-12-29T03:22:18.960Z,0.69
2017-12-29T03:23:21.928Z,0.88
2017-12-29T03:24:25.250Z,0.68
2017-12-29T03:25:28.148Z,0.56
2017-12-29T03:26:31.121Z,0.79
2017-12-29T03:27:34.052Z,0.69
2017-12-29T03:28:36.981Z,0.68
2017-12-29T03:29:39.945Z,0.89
2017-12-29T03:30:43.076Z,0.62
2017-12-29T03:31:46.023Z,0.64
2017-12-29T03:32:48.892Z,0.61
2017-12-29T03:33:51.707Z,0.77
2017-12-29T03:34:54.589Z,0.71
2017-12-29T03:35:57.681Z,0.94
2017-12-29T03:37:00.507Z,0.95
2017-12-29T03:38:03.340Z,0.81
2017-12-29T03:39:06.270Z,0.88
2017-12-29T03:40:09.238Z,0.88
2017-12-29T03:41:12.216Z,0.96
2017-12-29T03:42:15.458Z,0.93
2017-12-29T03:43:18.389Z,0.95
2017-12-29T03:44:21.343Z,0.89
2017-12-29T03:45:24.284Z,1.09
2017-12-29T03:46:27.244Z,0.96
2017-12-29T03:47:30.183Z,0.82
2017-12-29T03:48:33.402Z,0.84
2017-12-29T03:49:36.322Z,0.97
2017-12-29T03:50:39.236Z,1.05
2017-12-29T03:51:42.062Z,0.88
2017-12-29T03:52:44.877Z,0.85
2017-12-29T03:53:47.680Z,0.85
2017-12-29T03:54:50.489Z,0.94
2017-12-29T03:55:53.325Z,0.98
2017-12-29T03:56:56.524Z,0.92
2017-12-29T03:57:59.465Z,0.73
2017-12-29T03:59:03.544Z,0.72
2017-12-29T04:00:06.746Z,0.82
2017-12-29T04:01:09.592Z,0.84
2017-12-29T04:02:12.418Z,0.99
2017-12-29T04:03:15.298Z,0.95
2017-12-29T04:04:18.136Z,0.73
2017-12-29T04:05:20.960Z,0.85
2017-12-29T04:06:24.289Z,0.63
2017-12-29T04:07:27.251Z,0.89
2017-12-29T04:08:31.239Z,0.69
2017-12-29T04:09:34.197Z,0.74
2017-12-29T04:10:37.164Z,0.68
2017-12-29T04:11:40.091Z,0.64
2017-12-29T04:12:43.321Z,0.71
2017-12-29T04:13:46.218Z,0.73
2017-12-29T04:14:49.156Z,0.74
2017-12-29T04:15:52.079Z,0.66
2017-12-29T04:16:54.997Z,0.67
2017-12-29T04:18:00.168Z,0.65
2017-12-29T04:19:03.376Z,0.69
2017-12-29T04:20:06.789Z,0.71
2017-12-29T04:21:09.703Z,0.69
2017-12-29T04:22:12.613Z,0.64
2017-12-29T04:23:15.552Z,0.59
2017-12-29T04:24:18.449Z,0.76
2017-12-29T04:25:21.656Z,0.77
2017-12-29T04:26:24.588Z,0.83
2017-12-29T04:27:27.499Z,0.77
2017-12-29T04:28:32.022Z,0.67
2017-12-29T04:29:34.958Z,0.87
2017-12-29T04:30:38.942Z,0.92
2017-12-29T04:31:41.883Z,0.89
2017-12-29T04:32:44.822Z,0.76
2017-12-29T04:33:47.760Z,0.84
2017-12-29T04:34:50.609Z,0.71
2017-12-29T04:35:53.471Z,0.71
2017-12-29T04:36:56.611Z,0.89
2017-12-29T04:37:59.509Z,0.87
2017-12-29T04:39:02.377Z,0.73
2017-12-29T04:40:05.161Z,0.85
2017-12-29T04:41:07.915Z,0.77
2017-12-29T04:42:10.675Z,0.75
2017-12-29T04:43:13.760Z,0.80
2017-12-29T04:44:16.524Z,0.80
2017-12-29T04:45:19.309Z,0.85
2017-12-29T04:46:22.068Z,0.79
2017-12-29T04:47:24.892Z,0.82
2017-12-29T04:48:27.729Z,0.91
2017-12-29T04:49:30.888Z,0.75
2017-12-29T04:50:33.813Z,0.82
2017-12-29T04:51:36.746Z,0.60
2017-12-29T04:52:39.658Z,0.86
2017-12-29T04:53:42.634Z,0.67
2017-12-29T04:54:45.581Z,0.80
2017-12-29T04:55:48.950Z,0.68
2017-12-29T04:56:51.898Z,0.59
2017-12-29T04:57:54.886Z,0.61
2017-12-29T04:58:57.893Z,0.59
2017-12-29T05:00:00.887Z,0.65
2017-12-29T05:01:03.865Z,0.55
2017-12-29T05:02:07.190Z,0.57
2017-12-29T05:03:10.122Z,0.59
2017-12-29T05:04:13.109Z,0.77
2017-12-29T05:05:16.047Z,0.67
2017-12-29T05:06:19.056Z,0.78
2017-12-29T05:07:22.014Z,0.66
2017-12-29T05:08:25.301Z,0.82
2017-12-29T05:09:28.265Z,0.70
2017-12-29T05:10:31.200Z,0.79
2017-12-29T05:11:34.101Z,0.83
2017-12-29T05:12:38.616Z,0.82
2017-12-29T05:13:41.674Z,0.83
2017-12-29T05:14:45.098Z,0.77
2017-12-29T05:15:48.107Z,0.57
2017-12-29T05:16:51.104Z,0.65
2017-12-29T05:17:54.192Z,0.71
2017-12-29T05:18:57.269Z,0.50
2017-12-29T05:20:00.328Z,0.59
2017-12-29T05:21:03.696Z,0.80
2017-12-29T05:22:06.618Z,0.58
2017-12-29T05:23:09.692Z,0.66
2017-12-29T05:24:12.804Z,0.59
2017-12-29T05:25:15.966Z,0.60
2017-12-29T05:26:19.044Z,0.78
2017-12-29T05:27:22.486Z,0.60
2017-12-29T05:28:25.567Z,0.46
2017-12-29T05:29:28.646Z,0.58
2017-12-29T05:30:31.724Z,0.77
2017-12-29T05:31:34.788Z,0.85
2017-12-29T05:32:37.894Z,0.52
2017-12-29T05:33:41.293Z,0.70
2017-12-29T05:34:45.009Z,0.89
2017-12-29T05:35:48.062Z,0.77
2017-12-29T05:36:51.176Z,0.78
2017-12-29T05:37:54.304Z,0.75
2017-12-29T05:38:57.353Z,0.75
2017-12-29T05:40:00.827Z,0.73
2017-12-29T05:41:03.938Z,0.65
2017-12-29T05:42:06.936Z,0.66
2017-12-29T05:43:10.019Z,0.67
2017-12-29T05:44:13.054Z,0.65
2017-12-29T05:45:16.115Z,0.67
2017-12-29T05:46:19.454Z,0.58
2017-12-29T05:47:22.506Z,0.61
2017-12-29T05:48:25.581Z,0.47
2017-12-29T05:49:28.552Z,0.56
2017-12-29T05:50:31.544Z,0.47
2017-12-29T05:51:34.542Z,0.55
2017-12-29T05:52:37.885Z,0.69
2017-12-29T05:53:41.026Z,0.54
2017-12-29T05:54:44.124Z,0.61
2017-12-29T05:55:47.196Z,0.57
2017-12-29T05:56:50.316Z,0.57
2017-12-29T05:57:53.369Z,0.45
2017-12-29T05:58:56.683Z,0.55
2017-12-29T05:59:59.741Z,0.54
2017-12-29T06:01:02.798Z,0.49
2017-12-29T06:02:05.957Z,0.41
2017-12-29T06:03:09.114Z,0.49
2017-12-29T06:04:12.168Z,0.49
2017-12-29T06:05:15.496Z,0.53
2017-12-29T06:06:18.556Z,0.56
2017-12-29T06:07:22.273Z,0.56
2017-12-29T06:08:25.286Z,0.41
2017-12-29T06:09:28.384Z,0.49
2017-12-29T06:10:31.398Z,0.45
2017-12-29T06:11:34.991Z,0.51
2017-12-29T06:12:38.028Z,0.39
2017-12-29T06:13:41.179Z,0.36
2017-12-29T06:14:44.265Z,0.34
2017-12-29T06:15:47.333Z,0.50
2017-12-29T06:16:50.378Z,0.42
2017-12-29T06:17:53.726Z,0.43
2017-12-29T06:18:57.710Z,0.38
2017-12-29T06:20:00.824Z,0.37
2017-12-29T06:21:03.907Z,0.33
2017-12-29T06:22:07.003Z,0.36
2017-12-29T06:23:10.067Z,0.32
2017-12-29T06:24:13.570Z,0.26
2017-12-29T06:25:16.608Z,0.28
2017-12-29T06:26:19.722Z,0.32
2017-12-29T06:27:22.876Z,0.25
2017-12-29T06:28:25.909Z,0.26
2017-12-29T06:29:29.010Z,0.19
2017-12-29T06:30:32.326Z,0.37
2017-12-29T06:31:35.369Z,0.29
2017-12-29T06:32:38.493Z,0.30
2017-12-29T06:33:41.565Z,0.23
2017-12-29T06:34:44.610Z,0.16
2017-12-29T06:35:47.596Z,0.12
2017-12-29T06:36:50.893Z,0.15
2017-12-29T06:37:53.953Z,0.17
2017-12-29T06:38:57.023Z,0.18
2017-12-29T06:40:00.078Z,0.21
2017-12-29T06:41:03.179Z,0.19
2017-12-29T06:42:06.250Z,0.24
2017-12-29T06:43:09.808Z,0.31
2017-12-29T06:44:12.937Z,0.07
2017-12-29T06:45:16.035Z,0.16
2017-12-29T06:46:19.127Z,0.17
2017-12-29T06:47:22.536Z,0.00
2017-12-29T06:48:25.646Z,0.10
2017-12-29T06:49:29.204Z,0.16
2017-12-29T06:50:32.338Z,0.13
2017-12-29T06:51:35.395Z,0.07
2017-12-29T06:52:38.457Z,0.09
2017-12-29T06:53:42.197Z,-0.01
2017-12-29T06:54:45.225Z,0.04
2017-12-29T06:55:48.650Z,0.11
2017-12-29T06:56:51.718Z,0.12
2017-12-29T06:57:54.775Z,0.11
2017-12-29T06:58:57.875Z,0.02
2017-12-29T07:00:01.019Z,0.01
2017-12-29T07:01:04.124Z,0.06
2017-12-29T07:02:07.618Z,0.07
2017-12-29T07:03:10.668Z,-0.08
2017-12-29T07:04:13.817Z,0.03
2017-12-29T07:05:17.876Z,0.04
2017-12-29T07:06:20.966Z,0.01
2017-12-29T07:07:24.084Z,0.00
2017-12-29T07:08:27.462Z,0.20
2017-12-29T07:09:30.527Z,0.11
2017-12-29T07:10:33.626Z,0.11
2017-12-29T07:11:36.705Z,-0.06
2017-12-29T07:12:39.803Z,-0.09
2017-12-29T07:13:42.900Z,-0.01
2017-12-29T07:14:46.240Z,0.03
2017-12-29T07:15:49.869Z,-0.14
2017-12-29T07:16:52.973Z,-0.03
2017-12-29T07:17:56.024Z,0.07
2017-12-29T07:18:59.101Z,0.11
2017-12-29T07:20:02.239Z,0.09
2017-12-29T07:21:05.664Z,0.09
2017-12-29T07:22:08.774Z,0.01
2017-12-29T07:23:11.831Z,-0.03
2017-12-29T07:24:14.914Z,-0.13
2017-12-29T07:25:17.988Z,-0.04
2017-12-29T07:26:21.018Z,-0.10
2017-12-29T07:27:24.290Z,-0.03
2017-12-29T07:28:27.296Z,-0.20
2017-12-29T07:29:30.270Z,-0.12
2017-12-29T07:30:33.226Z,-0.19
2017-12-29T07:31:36.267Z,-0.10
2017-12-29T07:32:39.332Z,-0.12
2017-12-29T07:33:42.694Z,-0.13
2017-12-29T07:34:46.007Z,-0.12
2017-12-29T07:35:49.107Z,-0.13
2017-12-29T07:36:52.151Z,-0.06
2017-12-29T07:37:55.209Z,0.04
2017-12-29T07:38:58.310Z,-0.03
2017-12-29T07:40:01.950Z,0.00
2017-12-29T07:41:04.928Z,-0.11
2017-12-29T07:42:07.978Z,0.02
2017-12-29T07:43:10.887Z,0.13
2017-12-29T07:44:13.816Z,0.16
2017-12-29T07:45:16.775Z,0.04
2017-12-29T07:46:20.129Z,0.15
2017-12-29T07:47:23.116Z,-0.01
2017-12-29T07:48:26.097Z,0.07
2017-12-29T07:49:29.073Z,0.12
2017-12-29T07:50:32.138Z,0.00
2017-12-29T07:51:35.186Z,0.25
2017-12-29T07:52:38.542Z,0.35
2017-12-29T07:53:41.494Z,0.40
2017-12-29T07:54:44.514Z,0.57
2017-12-29T07:55:47.467Z,0.46
2017-12-29T07:56:50.556Z,0.89
2017-12-29T07:57:53.663Z,0.97
2017-12-29T07:58:57.734Z,0.85
2017-12-29T08:00:00.867Z,1.20
2017-12-29T08:01:03.944Z,1.32
2017-12-29T08:02:07.027Z,1.25
2017-12-29T08:03:10.175Z,1.72
2017-12-29T08:04:13.254Z,1.67
2017-12-29T08:05:16.818Z,1.46
2017-12-29T08:06:19.962Z,1.67
2017-12-29T08:07:24.026Z,1.76
2017-12-29T08:08:27.107Z,1.77
2017-12-29T08:09:30.190Z,1.96
2017-12-29T08:10:33.251Z,1.47
2017-12-29T08:11:36.611Z,1.80
2017-12-29T08:12:39.672Z,1.70
2017-12-29T08:13:42.761Z,2.02
2017-12-29T08:14:45.840Z,1.83
2017-12-29T08:15:48.942Z,2.02
2017-12-29T08:16:52.062Z,2.18
2017-12-29T08:17:55.708Z,2.12
2017-12-29T08:18:58.842Z,2.38
2017-12-29T08:20:01.957Z,2.74
2017-12-29T08:21:05.092Z,2.12
2017-12-29T08:22:08.177Z,2.60
2017-12-29T08:23:12.053Z,2.99
2017-12-29T08:24:15.677Z,3.07
2017-12-29T08:25:18.768Z,3.46
2017-12-29T08:26:21.990Z,3.51
2017-12-29T08:27:25.136Z,2.83
2017-12-29T08:28:28.194Z,2.84
2017-12-29T08:29:31.265Z,2.94
2017-12-29T08:30:34.653Z,2.90
2017-12-29T08:31:37.719Z,2.90
2017-12-29T08:32:40.794Z,3.14
2017-12-29T08:33:43.857Z,3.00
2017-12-29T08:34:46.955Z,2.85
2017-12-29T08:35:50.065Z,3.20
2017-12-29T08:36:53.470Z,3.11
2017-12-29T08:37:56.884Z,2.03
2017-12-29T08:38:59.952Z,1.91
2017-12-29T08:40:03.037Z,1.78
2017-12-29T08:41:06.115Z,1.79
2017-12-29T08:42:09.470Z,1.72
2017-12-29T08:43:12.902Z,1.75
2017-12-29T08:44:16.215Z,1.69
2017-12-29T08:45:19.344Z,1.79
2017-12-29T08:46:22.467Z,1.89
2017-12-29T08:47:25.577Z,1.48
2017-12-29T08:48:28.706Z,2.01
2017-12-29T08:49:32.164Z,1.98
2017-12-29T08:50:35.255Z,2.28
2017-12-29T08:51:38.318Z,2.35
2017-12-29T08:52:42.037Z,1.86
2017-12-29T08:53:45.166Z,2.12
2017-12-29T08:54:48.390Z,2.43
2017-12-29T08:55:51.810Z,3.29
2017-12-29T08:56:54.852Z,3.19
2017-12-29T08:57:57.883Z,3.30
2017-12-29T08:59:00.975Z,2.92
2017-12-29T09:00:04.086Z,2.44
2017-12-29T09:01:07.192Z,2.92
2017-12-29T09:02:10.657Z,3.22
2017-12-29T09:03:13.725Z,2.10
2017-12-29T09:04:16.915Z,3.08
2017-12-29T09:05:20.045Z,2.99
2017-12-29T09:06:23.160Z,2.75
2017-12-29T09:07:26.230Z,2.97
2017-12-29T09:08:29.685Z,3.40
2017-12-29T09:09:32.790Z,4.15
2017-12-29T09:10:35.883Z,4.33
2017-12-29T09:11:39.015Z,3.32
2017-12-29T09:12:42.080Z,4.18
2017-12-29T09:13:45.110Z,2.78
2017-12-29T09:14:48.514Z,4.03
2017-12-29T09:15:52.551Z,4.17
2017-12-29T09:16:55.646Z,4.38
2017-12-29T09:17:58.838Z,4.21
2017-12-29T09:19:01.900Z,4.77
2017-12-29T09:20:04.959Z,4.86
2017-12-29T09:21:08.461Z,4.42
2017-12-29T09:22:11.572Z,4.58
2017-12-29T09:23:14.645Z,4.16
2017-12-29T09:24:17.745Z,3.78
2017-12-29T09:25:20.777Z,3.07
2017-12-29T09:26:23.829Z,3.79
2017-12-29T09:27:27.243Z,4.14
2017-12-29T09:28:30.307Z,4.37
2017-12-29T09:29:33.419Z,3.99
2017-12-29T09:30:36.428Z,4.64
2017-12-29T09:31:39.489Z,3.92
2017-12-29T09:32:42.525Z,2.51
2017-12-29T09:33:45.889Z,2.93
2017-12-29T09:34:48.959Z,3.75
2017-12-29T09:35:52.035Z,2.61
2017-12-29T09:36:55.113Z,3.24
2017-12-29T09:37:58.202Z,4.26
2017-12-29T09:39:01.340Z,4.78
2017-12-29T09:40:04.963Z,3.66
2017-12-29T09:41:07.972Z,4.42
2017-12-29T09:42:11.035Z,5.07
2017-12-29T09:43:14.026Z,4.59
2017-12-29T09:44:17.076Z,4.88
2017-12-29T09:45:20.099Z,3.68
2017-12-29T09:46:23.456Z,5.09
2017-12-29T09:47:26.545Z,4.85
2017-12-29T09:48:29.658Z,4.16
2017-12-29T09:49:32.768Z,4.28
2017-12-29T09:50:36.479Z,3.60
2017-12-29T09:51:39.684Z,4.16
2017-12-29T09:52:43.084Z,4.06
2017-12-29T09:53:46.343Z,4.48
2017-12-29T09:54:49.477Z,4.76
2017-12-29T09:55:52.616Z,4.39
2017-12-29T09:56:55.745Z,4.61
2017-12-29T09:57:58.994Z,5.15
2017-12-29T09:59:02.565Z,4.26
2017-12-29T10:00:05.852Z,4.02
2017-12-29T10:01:08.839Z,3.33
2017-12-29T10:02:11.826Z,4.05
2017-12-29T10:03:14.805Z,4.50
2017-12-29T10:04:17.887Z,3.49
2017-12-29T10:05:21.308Z,4.85
2017-12-29T10:06:24.370Z,4.17
2017-12-29T10:07:27.421Z,3.31
2017-12-29T10:08:30.498Z,4.37
2017-12-29T10:09:33.599Z,4.39
2017-12-29T10:10:36.691Z,4.49
2017-12-29T10:11:40.053Z,2.97
2017-12-29T10:12:43.141Z,3.57
2017-12-29T10:13:46.288Z,3.38
2017-12-29T10:14:49.419Z,5.41
2017-12-29T10:15:52.501Z,5.19
2017-12-29T10:16:55.851Z,5.33
2017-12-29T10:17:58.931Z,4.49
2017-12-29T10:19:01.933Z,5.02
2017-12-29T10:20:05.013Z,5.04
2017-12-29T10:21:08.272Z,5.06
2017-12-29T10:22:11.448Z,4.96
2017-12-29T10:23:15.063Z,4.04
2017-12-29T10:24:18.218Z,4.54
2017-12-29T10:25:21.307Z,3.43
2017-12-29T10:26:24.373Z,4.56
2017-12-29T10:27:27.522Z,5.28
2017-12-29T10:28:30.615Z,4.92
2017-12-29T10:29:34.039Z,4.95
2017-12-29T10:30:37.280Z,4.15
2017-12-29T10:31:40.371Z,3.40
2017-12-29T10:32:43.462Z,4.50
2017-12-29T10:33:46.570Z,5.13
2017-12-29T10:34:49.662Z,4.34
2017-12-29T10:35:53.027Z,2.96
2017-12-29T10:36:56.156Z,3.80
2017-12-29T10:37:59.238Z,4.76
2017-12-29T10:39:02.388Z,4.83
2017-12-29T10:40:05.475Z,4.64
2017-12-29T10:41:08.596Z,4.66
2017-12-29T10:42:12.213Z,4.35
2017-12-29T10:43:15.306Z,4.60
2017-12-29T10:44:18.461Z,4.44
2017-12-29T10:45:22.554Z,4.31
2017-12-29T10:46:25.651Z,3.88
2017-12-29T10:47:28.743Z,3.39
2017-12-29T10:48:32.597Z,2.83
2017-12-29T10:49:35.727Z,3.51
2017-12-29T10:50:38.839Z,4.10
2017-12-29T10:51:41.917Z,4.35
2017-12-29T10:52:44.929Z,5.30
2017-12-29T10:53:48.003Z,5.24
2017-12-29T10:54:51.383Z,4.92
2017-12-29T10:55:54.475Z,4.27
2017-12-29T10:56:57.582Z,4.38
2017-12-29T10:58:00.708Z,4.59
2017-12-29T10:59:04.392Z,5.80
2017-12-29T11:00:07.495Z,5.82
2017-12-29T11:01:10.874Z,5.48
2017-12-29T11:02:14.046Z,5.46
2017-12-29T11:03:18.149Z,5.32
2017-12-29T11:04:21.214Z,5.94
2017-12-29T11:05:24.277Z,6.03
2017-12-29T11:06:27.377Z,5.42
2017-12-29T11:07:30.511Z,5.15
2017-12-29T11:08:33.724Z,5.07
2017-12-29T11:09:36.809Z,5.44
2017-12-29T11:10:40.652Z,5.04
2017-12-29T11:11:43.720Z,5.50
2017-12-29T11:12:47.104Z,4.74
2017-12-29T11:13:50.260Z,4.42
2017-12-29T11:14:53.335Z,3.21
2017-12-29T11:15:56.413Z,3.16
2017-12-29T11:16:59.532Z,3.01
2017-12-29T11:18:02.710Z,3.00
2017-12-29T11:19:06.174Z,2.72
2017-12-29T11:20:09.262Z,2.77
2017-12-29T11:21:12.489Z,2.76
2017-12-29T11:22:15.622Z,2.65
2017-12-29T11:23:18.828Z,2.56
2017-12-29T11:24:21.952Z,2.39
2017-12-29T11:25:25.108Z,2.48
2017-12-29T11:26:29.372Z,2.45
2017-12-29T11:27:33.140Z,2.30
2017-12-29T11:28:36.229Z,2.38
2017-12-29T11:29:39.405Z,2.37
2017-12-29T11:30:42.869Z,2.43
2017-12-29T11:31:45.991Z,2.69
2017-12-29T11:32:49.103Z,2.76
2017-12-29T11:33:52.342Z,2.97
2017-12-29T11:34:55.473Z,3.41
2017-12-29T11:35:58.556Z,3.82
2017-12-29T11:37:02.188Z,2.80
2017-12-29T11:38:05.258Z,3.27
2017-12-29T11:39:08.361Z,3.06
2017-12-29T11:40:11.450Z,2.73
2017-12-29T11:41:14.586Z,2.63
2017-12-29T11:42:17.640Z,2.92
2017-12-29T11:43:21.004Z,3.21
2017-12-29T11:44:24.088Z,2.99
2017-12-29T11:45:27.214Z,3.05
2017-12-29T11:46:30.352Z,2.59
2017-12-29T11:47:34.370Z,2.79
2017-12-29T11:48:37.549Z,2.73
2017-12-29T11:49:41.108Z,2.30
2017-12-29T11:50:44.218Z,2.41
2017-12-29T11:51:47.430Z,2.50
2017-12-29T11:52:50.587Z,2.41
2017-12-29T11:53:53.695Z,2.27
2017-12-29T11:54:56.823Z,2.24
2017-12-29T11:56:00.264Z,2.21
2017-12-29T11:57:04.562Z,2.21
2017-12-29T11:58:07.672Z,2.25
2017-12-29T11:59:11.364Z,2.12
2017-12-29T12:00:14.587Z,2.24
2017-12-29T12:01:17.681Z,2.14
2017-12-29T12:02:21.184Z,2.19
2017-12-29T12:03:24.777Z,2.20
2017-12-29T12:04:27.909Z,2.35
2017-12-29T12:05:31.526Z,2.46
2017-12-29T12:06:34.618Z,2.33
2017-12-29T12:07:37.682Z,2.41
2017-12-29T12:08:41.396Z,2.40
2017-12-29T12:09:44.472Z,2.28
2017-12-29T12:10:47.689Z,2.27
2017-12-29T12:11:50.784Z,2.07
2017-12-29T12:12:53.901Z,2.11
2017-12-29T12:13:57.011Z,2.30
2017-12-29T12:15:00.604Z,2.26
2017-12-29T12:16:03.729Z,2.25
2017-12-29T12:17:06.892Z,2.20
2017-12-29T12:18:10.000Z,2.19
2017-12-29T12:19:13.373Z,2.34
2017-12-29T12:20:16.422Z,2.16
2017-12-29T12:21:19.737Z,2.08
2017-12-29T12:22:22.750Z,2.12
2017-12-29T12:23:25.734Z,2.09
2017-12-29T12:24:29.673Z,2.24
2017-12-29T12:25:32.772Z,2.28
2017-12-29T12:26:35.873Z,2.31
2017-12-29T12:27:39.242Z,2.28
2017-12-29T12:28:42.331Z,2.13
2017-12-29T12:29:45.462Z,2.14
2017-12-29T12:30:48.558Z,2.12
2017-12-29T12:31:51.649Z,2.19
2017-12-29T12:32:54.768Z,2.42
2017-12-29T12:33:58.143Z,2.38
2017-12-29T12:35:01.311Z,2.43
2017-12-29T12:36:04.431Z,2.48
2017-12-29T12:37:07.500Z,2.40
2017-12-29T12:38:10.610Z,2.17
2017-12-29T12:39:14.641Z,2.15
2017-12-29T12:40:18.064Z,2.15
2017-12-29T12:41:21.112Z,2.20
2017-12-29T12:42:24.233Z,2.19
2017-12-29T12:43:27.313Z,2.15
2017-12-29T12:44:30.696Z,2.11
2017-12-29T12:45:33.762Z,2.10
2017-12-29T12:46:37.371Z,2.04
2017-12-29T12:47:40.618Z,2.08
2017-12-29T12:48:44.657Z,2.18
2017-12-29T12:49:47.807Z,2.16
2017-12-29T12:50:50.959Z,2.15
2017-12-29T12:51:54.122Z,2.16
2017-12-29T12:52:57.828Z,2.18
2017-12-29T12:54:00.971Z,2.27
2017-12-29T12:55:04.094Z,2.19
2017-12-29T12:56:07.122Z,2.22
2017-12-29T12:57:10.153Z,2.09
2017-12-29T12:58:13.301Z,2.09
2017-12-29T12:59:16.892Z,2.05
2017-12-29T13:00:20.160Z,1.98
2017-12-29T13:01:23.202Z,2.08
2017-12-29T13:02:26.255Z,2.08
2017-12-29T13:03:29.348Z,2.10
2017-12-29T13:04:32.379Z,2.07
2017-12-29T13:05:35.748Z,1.98
2017-12-29T13:06:38.804Z,2.00
2017-12-29T13:07:41.871Z,2.05
2017-12-29T13:08:44.965Z,1.93
2017-12-29T13:09:48.039Z,1.98
2017-12-29T13:10:51.152Z,1.99
2017-12-29T13:11:54.536Z,2.07
2017-12-29T13:12:57.620Z,2.02
2017-12-29T13:14:00.781Z,1.97
2017-12-29T13:15:03.910Z,1.97
2017-12-29T13:16:07.019Z,2.10
2017-12-29T13:17:10.070Z,2.09
2017-12-29T13:18:13.405Z,2.02
2017-12-29T13:19:16.533Z,2.05
2017-12-29T13:20:19.612Z,2.02
2017-12-29T13:21:22.715Z,2.01
2017-12-29T13:22:25.870Z,2.18
2017-12-29T13:23:28.939Z,2.10
2017-12-29T13:24:32.325Z,2.06
2017-12-29T13:25:35.438Z,2.08
2017-12-29T13:26:38.519Z,2.00
2017-12-29T13:27:41.615Z,2.06
2017-12-29T13:28:44.768Z,2.06
2017-12-29T13:29:47.891Z,2.09
2017-12-29T13:30:51.442Z,2.07
2017-12-29T13:31:54.482Z,2.03
2017-12-29T13:32:57.486Z,1.98
2017-12-29T13:34:00.529Z,1.88
2017-12-29T13:35:03.688Z,1.97
2017-12-29T13:36:06.778Z,1.87
2017-12-29T13:37:10.334Z,2.05
2017-12-29T13:38:13.421Z,2.00
2017-12-29T13:39:16.499Z,2.02
2017-12-29T13:40:19.588Z,1.88
2017-12-29T13:41:22.683Z,1.91
2017-12-29T13:42:25.753Z,1.94
2017-12-29T13:43:29.366Z,1.95
2017-12-29T13:44:32.457Z,1.91
2017-12-29T13:45:35.598Z,2.08
2017-12-29T13:46:38.740Z,1.91
2017-12-29T13:47:41.797Z,1.98
2017-12-29T13:48:44.891Z,1.97
2017-12-29T13:49:48.034Z,2.06
2017-12-29T13:50:51.121Z,1.92
2017-12-29T13:51:54.133Z,1.95
2017-12-29T13:52:57.407Z,1.95
2017-12-29T13:54:00.434Z,2.07
2017-12-29T13:55:04.766Z,1.95
2017-12-29T13:56:07.850Z,1.95
2017-12-29T13:57:10.943Z,2.04
2017-12-29T13:58:14.015Z,1.94
2017-12-29T13:59:17.123Z,1.87